Teresita, Missouri
Current Conditions -  °F | °C
As of 4:53 AM on Wednesday 26 Nov 2014 (Local Time) from KUNO Reporting Station
Few Clouds Few Clouds  
Wind Chill: 26°   Ceiling: Unl
Heat Index: 33°   Visibility: 10mi
Dew Point: 19°   Wind: 8mph
Humidity: 56%   Direction: 170°S
Pressure: 30.03"   Gusts: NA
Location:  36.99°N, 91.63°W
Report Text: KUNO 261053Z AUTO 17007KT 10SM FEW120 01/M07 A3003 RMK AO2 SLP177 T00061072
Loading
Personal Weather Stations






























Interactive Weather Map New forecast layout! Learn more

10-Day Weather Forecast

Advertisements
Track Severe Weather on mobile